sensor_id;sensor_type;location;lat;lon;timestamp;P1;durP1;ratioP1;P2;durP2;ratioP2
31262;SDS011;17892;52.080;9.006;2023-10-13T00:02:06;12.60;;;8.02;;
31262;SDS011;17892;52.080;9.006;2023-10-13T00:04:33;11.60;;;8.10;;
31262;SDS011;17892;52.080;9.006;2023-10-13T00:09:29;11.50;;;7.70;;
31262;SDS011;17892;52.080;9.006;2023-10-13T00:11:58;11.90;;;7.15;;
31262;SDS011;17892;52.080;9.006;2023-10-13T00:14:25;12.30;;;7.80;;
31262;SDS011;17892;52.080;9.006;2023-10-13T00:17:00;11.70;;;7.47;;
31262;SDS011;17892;52.080;9.006;2023-10-13T00:19:33;11.57;;;6.70;;
31262;SDS011;17892;52.080;9.006;2023-10-13T00:22:03;10.30;;;7.15;;
31262;SDS011;17892;52.080;9.006;2023-10-13T00:24:34;11.13;;;7.68;;
31262;SDS011;17892;52.080;9.006;2023-10-13T00:27:18;9.90;;;6.70;;
31262;SDS011;17892;52.080;9.006;2023-10-13T00:29:57;11.90;;;7.85;;
31262;SDS011;17892;52.080;9.006;2023-10-13T00:32:44;11.57;;;8.18;;
31262;SDS011;17892;52.080;9.006;2023-10-13T00:35:19;10.77;;;7.45;;
31262;SDS011;17892;52.080;9.006;2023-10-13T00:37:56;11.32;;;7.50;;
31262;SDS011;17892;52.080;9.006;2023-10-13T00:40:29;10.20;;;7.25;;
31262;SDS011;17892;52.080;9.006;2023-10-13T00:43:00;11.65;;;8.75;;
31262;SDS011;17892;52.080;9.006;2023-10-13T00:45:45;11.18;;;7.78;;
31262;SDS011;17892;52.080;9.006;2023-10-13T00:48:24;11.60;;;7.63;;
31262;SDS011;17892;52.080;9.006;2023-10-13T00:50:58;11.90;;;8.38;;
31262;SDS011;17892;52.080;9.006;2023-10-13T00:53:32;11.52;;;8.02;;
31262;SDS011;17892;52.080;9.006;2023-10-13T00:56:09;10.65;;;7.95;;
31262;SDS011;17892;52.080;9.006;2023-10-13T00:58:52;11.02;;;7.63;;
31262;SDS011;17892;52.080;9.006;2023-10-13T01:01:23;11.13;;;7.63;;
31262;SDS011;17892;52.080;9.006;2023-10-13T01:03:57;10.93;;;7.53;;
31262;SDS011;17892;52.080;9.006;2023-10-13T01:06:28;13.48;;;8.00;;
31262;SDS011;17892;52.080;9.006;2023-10-13T01:09:02;10.38;;;7.25;;
31262;SDS011;17892;52.080;9.006;2023-10-13T01:11:49;11.43;;;7.57;;
31262;SDS011;17892;52.080;9.006;2023-10-13T01:14:19;9.23;;;6.90;;
31262;SDS011;17892;52.080;9.006;2023-10-13T01:16:45;10.02;;;6.55;;
31262;SDS011;17892;52.080;9.006;2023-10-13T01:19:13;8.50;;;5.60;;
31262;SDS011;17892;52.080;9.006;2023-10-13T01:21:45;10.40;;;6.15;;
31262;SDS011;17892;52.080;9.006;2023-10-13T01:24:13;8.43;;;5.90;;
31262;SDS011;17892;52.080;9.006;2023-10-13T01:26:43;10.48;;;7.10;;
31262;SDS011;17892;52.080;9.006;2023-10-13T01:29:09;9.60;;;6.45;;
31262;SDS011;17892;52.080;9.006;2023-10-13T01:31:39;7.75;;;5.25;;
31262;SDS011;17892;52.080;9.006;2023-10-13T01:34:19;9.80;;;6.22;;
31262;SDS011;17892;52.080;9.006;2023-10-13T01:36:49;9.95;;;6.25;;
31262;SDS011;17892;52.080;9.006;2023-10-13T01:39:23;8.60;;;5.88;;
31262;SDS011;17892;52.080;9.006;2023-10-13T01:41:54;9.18;;;6.45;;
31262;SDS011;17892;52.080;9.006;2023-10-13T01:44:21;12.00;;;7.07;;
31262;SDS011;17892;52.080;9.006;2023-10-13T01:46:53;11.52;;;7.28;;
31262;SDS011;17892;52.080;9.006;2023-10-13T01:49:19;9.73;;;6.55;;
31262;SDS011;17892;52.080;9.006;2023-10-13T01:51:46;9.18;;;6.75;;
31262;SDS011;17892;52.080;9.006;2023-10-13T01:54:12;9.95;;;6.72;;
31262;SDS011;17892;52.080;9.006;2023-10-13T01:56:40;11.40;;;7.38;;
31262;SDS011;17892;52.080;9.006;2023-10-13T01:59:12;10.73;;;5.97;;
31262;SDS011;17892;52.080;9.006;2023-10-13T02:01:38;10.93;;;7.18;;
31262;SDS011;17892;52.080;9.006;2023-10-13T02:04:06;10.35;;;7.90;;
31262;SDS011;17892;52.080;9.006;2023-10-13T02:06:33;11.77;;;7.30;;
31262;SDS011;17892;52.080;9.006;2023-10-13T02:11:41;10.63;;;7.57;;
31262;SDS011;17892;52.080;9.006;2023-10-13T02:14:12;11.23;;;6.97;;
31262;SDS011;17892;52.080;9.006;2023-10-13T02:16:42;9.35;;;6.93;;
31262;SDS011;17892;52.080;9.006;2023-10-13T02:19:11;9.15;;;6.55;;
31262;SDS011;17892;52.080;9.006;2023-10-13T02:21:40;10.45;;;6.63;;
31262;SDS011;17892;52.080;9.006;2023-10-13T02:24:09;9.82;;;6.53;;
31262;SDS011;17892;52.080;9.006;2023-10-13T02:26:46;10.32;;;6.95;;
31262;SDS011;17892;52.080;9.006;2023-10-13T02:29:12;9.93;;;6.82;;
31262;SDS011;17892;52.080;9.006;2023-10-13T02:31:42;10.40;;;6.75;;
31262;SDS011;17892;52.080;9.006;2023-10-13T02:34:19;8.25;;;5.75;;
31262;SDS011;17892;52.080;9.006;2023-10-13T02:36:47;9.32;;;5.75;;
31262;SDS011;17892;52.080;9.006;2023-10-13T02:39:14;9.25;;;5.90;;
31262;SDS011;17892;52.080;9.006;2023-10-13T02:41:41;10.00;;;6.30;;
31262;SDS011;17892;52.080;9.006;2023-10-13T02:44:12;10.10;;;6.53;;
31262;SDS011;17892;52.080;9.006;2023-10-13T02:46:52;8.35;;;5.80;;
31262;SDS011;17892;52.080;9.006;2023-10-13T02:49:21;9.02;;;6.35;;
31262;SDS011;17892;52.080;9.006;2023-10-13T02:51:50;8.73;;;5.97;;
31262;SDS011;17892;52.080;9.006;2023-10-13T02:54:18;9.52;;;6.25;;
31262;SDS011;17892;52.080;9.006;2023-10-13T02:56:44;8.70;;;5.97;;
31262;SDS011;17892;52.080;9.006;2023-10-13T02:59:27;11.02;;;6.88;;
31262;SDS011;17892;52.080;9.006;2023-10-13T03:02:13;10.93;;;6.72;;
31262;SDS011;17892;52.080;9.006;2023-10-13T03:05:01;10.15;;;6.75;;
31262;SDS011;17892;52.080;9.006;2023-10-13T03:07:47;9.65;;;6.25;;
31262;SDS011;17892;52.080;9.006;2023-10-13T03:10:15;12.07;;;6.43;;
31262;SDS011;17892;52.080;9.006;2023-10-13T03:12:44;11.02;;;6.57;;
31262;SDS011;17892;52.080;9.006;2023-10-13T03:15:13;9.60;;;6.95;;
31262;SDS011;17892;52.080;9.006;2023-10-13T03:17:43;10.05;;;6.80;;
31262;SDS011;17892;52.080;9.006;2023-10-13T03:20:11;9.65;;;7.22;;
31262;SDS011;17892;52.080;9.006;2023-10-13T03:22:40;10.52;;;6.13;;
31262;SDS011;17892;52.080;9.006;2023-10-13T03:25:10;10.50;;;6.03;;
31262;SDS011;17892;52.080;9.006;2023-10-13T03:27:55;8.73;;;6.53;;
31262;SDS011;17892;52.080;9.006;2023-10-13T03:30:21;8.50;;;6.30;;
31262;SDS011;17892;52.080;9.006;2023-10-13T03:32:55;8.20;;;5.65;;
31262;SDS011;17892;52.080;9.006;2023-10-13T03:35:21;8.00;;;5.70;;
31262;SDS011;17892;52.080;9.006;2023-10-13T03:37:53;9.00;;;5.68;;
31262;SDS011;17892;52.080;9.006;2023-10-13T03:40:20;9.30;;;5.53;;
31262;SDS011;17892;52.080;9.006;2023-10-13T03:42:50;8.50;;;5.65;;
31262;SDS011;17892;52.080;9.006;2023-10-13T03:45:35;10.70;;;6.60;;
31262;SDS011;17892;52.080;9.006;2023-10-13T03:48:07;10.75;;;6.13;;
31262;SDS011;17892;52.080;9.006;2023-10-13T03:50:52;8.23;;;5.65;;
31262;SDS011;17892;52.080;9.006;2023-10-13T03:53:35;7.47;;;5.75;;
31262;SDS011;17892;52.080;9.006;2023-10-13T03:56:17;10.68;;;5.63;;
31262;SDS011;17892;52.080;9.006;2023-10-13T03:59:03;10.30;;;7.07;;
31262;SDS011;17892;52.080;9.006;2023-10-13T04:01:31;9.40;;;6.50;;
31262;SDS011;17892;52.080;9.006;2023-10-13T04:04:08;8.32;;;6.40;;
31262;SDS011;17892;52.080;9.006;2023-10-13T04:06:54;8.88;;;6.40;;
31262;SDS011;17892;52.080;9.006;2023-10-13T04:09:38;10.35;;;5.80;;
31262;SDS011;17892;52.080;9.006;2023-10-13T04:12:05;9.10;;;6.20;;
31262;SDS011;17892;52.080;9.006;2023-10-13T04:14:41;9.88;;;5.97;;
31262;SDS011;17892;52.080;9.006;2023-10-13T04:17:37;9.63;;;6.90;;
31262;SDS011;17892;52.080;9.006;2023-10-13T04:20:09;9.20;;;6.45;;
31262;SDS011;17892;52.080;9.006;2023-10-13T04:22:35;9.65;;;6.20;;
31262;SDS011;17892;52.080;9.006;2023-10-13T04:28:05;10.35;;;7.30;;
31262;SDS011;17892;52.080;9.006;2023-10-13T04:30:42;10.15;;;7.32;;
31262;SDS011;17892;52.080;9.006;2023-10-13T04:38:41;9.23;;;6.03;;
31262;SDS011;17892;52.080;9.006;2023-10-13T04:41:31;9.77;;;5.75;;
31262;SDS011;17892;52.080;9.006;2023-10-13T04:44:04;11.10;;;6.32;;
31262;SDS011;17892;52.080;9.006;2023-10-13T04:49:25;8.57;;;5.78;;
31262;SDS011;17892;52.080;9.006;2023-10-13T04:52:14;10.48;;;6.80;;
31262;SDS011;17892;52.080;9.006;2023-10-13T04:55:00;10.30;;;6.60;;
31262;SDS011;17892;52.080;9.006;2023-10-13T04:57:42;8.63;;;6.43;;
31262;SDS011;17892;52.080;9.006;2023-10-13T05:00:11;9.18;;;6.13;;
31262;SDS011;17892;52.080;9.006;2023-10-13T05:02:38;11.18;;;5.97;;
31262;SDS011;17892;52.080;9.006;2023-10-13T05:05:28;8.68;;;6.22;;
31262;SDS011;17892;52.080;9.006;2023-10-13T05:08:12;10.65;;;6.15;;
31262;SDS011;17892;52.080;9.006;2023-10-13T05:10:57;8.10;;;6.35;;
31262;SDS011;17892;52.080;9.006;2023-10-13T05:14:00;7.97;;;5.60;;
31262;SDS011;17892;52.080;9.006;2023-10-13T05:16:44;7.68;;;5.32;;
31262;SDS011;17892;52.080;9.006;2023-10-13T05:19:29;8.93;;;4.90;;
31262;SDS011;17892;52.080;9.006;2023-10-13T05:22:13;6.30;;;4.63;;
31262;SDS011;17892;52.080;9.006;2023-10-13T05:24:57;10.48;;;6.25;;
31262;SDS011;17892;52.080;9.006;2023-10-13T05:27:42;7.47;;;4.97;;
31262;SDS011;17892;52.080;9.006;2023-10-13T05:30:26;8.52;;;5.47;;
31262;SDS011;17892;52.080;9.006;2023-10-13T05:33:10;5.88;;;4.18;;
31262;SDS011;17892;52.080;9.006;2023-10-13T05:35:54;7.40;;;4.75;;
31262;SDS011;17892;52.080;9.006;2023-10-13T05:38:52;6.60;;;4.85;;
31262;SDS011;17892;52.080;9.006;2023-10-13T05:41:36;5.97;;;4.22;;
31262;SDS011;17892;52.080;9.006;2023-10-13T05:44:21;6.25;;;4.40;;
31262;SDS011;17892;52.080;9.006;2023-10-13T05:47:02;5.55;;;3.83;;
31262;SDS011;17892;52.080;9.006;2023-10-13T05:49:47;6.90;;;4.22;;
31262;SDS011;17892;52.080;9.006;2023-10-13T05:52:18;5.65;;;3.63;;
31262;SDS011;17892;52.080;9.006;2023-10-13T05:54:45;6.25;;;4.32;;
31262;SDS011;17892;52.080;9.006;2023-10-13T05:57:31;5.93;;;3.42;;
31262;SDS011;17892;52.080;9.006;2023-10-13T06:00:15;6.82;;;3.88;;
31262;SDS011;17892;52.080;9.006;2023-10-13T06:02:59;5.70;;;3.97;;
31262;SDS011;17892;52.080;9.006;2023-10-13T06:05:44;5.85;;;3.50;;
31262;SDS011;17892;52.080;9.006;2023-10-13T06:08:28;6.22;;;3.90;;
31262;SDS011;17892;52.080;9.006;2023-10-13T06:11:12;7.15;;;4.85;;
31262;SDS011;17892;52.080;9.006;2023-10-13T06:13:56;7.43;;;4.03;;
31262;SDS011;17892;52.080;9.006;2023-10-13T06:16:40;5.93;;;3.65;;
31262;SDS011;17892;52.080;9.006;2023-10-13T06:19:24;5.38;;;3.40;;
31262;SDS011;17892;52.080;9.006;2023-10-13T06:22:08;6.15;;;3.92;;
31262;SDS011;17892;52.080;9.006;2023-10-13T06:24:52;6.60;;;3.95;;
31262;SDS011;17892;52.080;9.006;2023-10-13T06:27:37;5.45;;;3.67;;
31262;SDS011;17892;52.080;9.006;2023-10-13T06:30:21;6.65;;;3.95;;
31262;SDS011;17892;52.080;9.006;2023-10-13T06:32:47;6.07;;;4.00;;
31262;SDS011;17892;52.080;9.006;2023-10-13T06:35:12;5.82;;;4.25;;
31262;SDS011;17892;52.080;9.006;2023-10-13T06:37:47;5.80;;;3.97;;
31262;SDS011;17892;52.080;9.006;2023-10-13T06:40:14;6.18;;;3.80;;
31262;SDS011;17892;52.080;9.006;2023-10-13T06:42:58;5.00;;;3.70;;
31262;SDS011;17892;52.080;9.006;2023-10-13T06:45:38;4.75;;;3.45;;
31262;SDS011;17892;52.080;9.006;2023-10-13T06:48:04;7.10;;;4.00;;
31262;SDS011;17892;52.080;9.006;2023-10-13T06:50:31;5.90;;;3.47;;
31262;SDS011;17892;52.080;9.006;2023-10-13T06:53:04;4.53;;;3.10;;
31262;SDS011;17892;52.080;9.006;2023-10-13T06:55:30;4.97;;;3.53;;
31262;SDS011;17892;52.080;9.006;2023-10-13T06:58:04;5.43;;;3.10;;
31262;SDS011;17892;52.080;9.006;2023-10-13T07:00:38;5.75;;;3.72;;
31262;SDS011;17892;52.080;9.006;2023-10-13T07:03:06;4.93;;;3.55;;
31262;SDS011;17892;52.080;9.006;2023-10-13T07:05:35;4.85;;;3.17;;
31262;SDS011;17892;52.080;9.006;2023-10-13T07:08:03;5.13;;;3.20;;
31262;SDS011;17892;52.080;9.006;2023-10-13T07:10:32;5.88;;;3.10;;
31262;SDS011;17892;52.080;9.006;2023-10-13T07:13:10;5.55;;;3.40;;
31262;SDS011;17892;52.080;9.006;2023-10-13T07:15:38;4.70;;;2.83;;
31262;SDS011;17892;52.080;9.006;2023-10-13T07:18:14;7.28;;;4.22;;
31262;SDS011;17892;52.080;9.006;2023-10-13T07:20:42;6.53;;;4.10;;
31262;SDS011;17892;52.080;9.006;2023-10-13T07:23:14;4.72;;;2.97;;
31262;SDS011;17892;52.080;9.006;2023-10-13T07:25:43;8.52;;;3.85;;
31262;SDS011;17892;52.080;9.006;2023-10-13T07:28:22;6.28;;;3.75;;
31262;SDS011;17892;52.080;9.006;2023-10-13T07:30:48;4.63;;;3.22;;
31262;SDS011;17892;52.080;9.006;2023-10-13T07:33:37;6.93;;;3.45;;
31262;SDS011;17892;52.080;9.006;2023-10-13T07:36:06;6.25;;;3.97;;
31262;SDS011;17892;52.080;9.006;2023-10-13T07:38:53;4.70;;;3.10;;
31262;SDS011;17892;52.080;9.006;2023-10-13T07:41:45;5.22;;;2.65;;
31262;SDS011;17892;52.080;9.006;2023-10-13T07:44:28;4.95;;;2.72;;
31262;SDS011;17892;52.080;9.006;2023-10-13T07:46:58;7.13;;;3.65;;
31262;SDS011;17892;52.080;9.006;2023-10-13T07:49:35;4.78;;;2.80;;
31262;SDS011;17892;52.080;9.006;2023-10-13T07:52:04;5.38;;;2.58;;
31262;SDS011;17892;52.080;9.006;2023-10-13T07:54:45;4.88;;;2.55;;
31262;SDS011;17892;52.080;9.006;2023-10-13T07:57:21;4.85;;;2.70;;
31262;SDS011;17892;52.080;9.006;2023-10-13T07:59:54;4.50;;;2.55;;
31262;SDS011;17892;52.080;9.006;2023-10-13T08:02:36;4.45;;;2.70;;
31262;SDS011;17892;52.080;9.006;2023-10-13T08:05:15;4.88;;;2.30;;
31262;SDS011;17892;52.080;9.006;2023-10-13T08:08:04;6.35;;;2.63;;
31262;SDS011;17892;52.080;9.006;2023-10-13T08:10:39;4.53;;;2.20;;
31262;SDS011;17892;52.080;9.006;2023-10-13T08:13:10;4.20;;;2.22;;
31262;SDS011;17892;52.080;9.006;2023-10-13T08:15:41;5.07;;;2.55;;
31262;SDS011;17892;52.080;9.006;2023-10-13T08:18:16;4.32;;;2.15;;
31262;SDS011;17892;52.080;9.006;2023-10-13T08:20:58;3.58;;;2.20;;
31262;SDS011;17892;52.080;9.006;2023-10-13T08:23:28;3.42;;;2.03;;
31262;SDS011;17892;52.080;9.006;2023-10-13T08:26:13;4.10;;;2.30;;
31262;SDS011;17892;52.080;9.006;2023-10-13T08:29:00;4.53;;;2.40;;
31262;SDS011;17892;52.080;9.006;2023-10-13T08:31:47;3.90;;;2.20;;
31262;SDS011;17892;52.080;9.006;2023-10-13T08:34:28;4.13;;;2.15;;
31262;SDS011;17892;52.080;9.006;2023-10-13T08:37:04;3.92;;;2.13;;
31262;SDS011;17892;52.080;9.006;2023-10-13T08:39:57;3.60;;;1.88;;
31262;SDS011;17892;52.080;9.006;2023-10-13T08:45:09;4.68;;;2.13;;
31262;SDS011;17892;52.080;9.006;2023-10-13T08:48:06;3.20;;;1.95;;
31262;SDS011;17892;52.080;9.006;2023-10-13T08:50:43;5.10;;;2.22;;
31262;SDS011;17892;52.080;9.006;2023-10-13T08:55:58;4.53;;;1.88;;
31262;SDS011;17892;52.080;9.006;2023-10-13T08:58:30;3.78;;;1.88;;
31262;SDS011;17892;52.080;9.006;2023-10-13T09:01:16;4.28;;;2.13;;
31262;SDS011;17892;52.080;9.006;2023-10-13T09:04:05;4.00;;;1.67;;
31262;SDS011;17892;52.080;9.006;2023-10-13T09:06:48;3.10;;;1.67;;
31262;SDS011;17892;52.080;9.006;2023-10-13T09:12:11;4.35;;;2.00;;
31262;SDS011;17892;52.080;9.006;2023-10-13T09:14:38;5.22;;;2.50;;
31262;SDS011;17892;52.080;9.006;2023-10-13T09:17:10;3.85;;;2.00;;
31262;SDS011;17892;52.080;9.006;2023-10-13T09:19:50;5.03;;;2.05;;
31262;SDS011;17892;52.080;9.006;2023-10-13T09:22:24;4.30;;;1.80;;
31262;SDS011;17892;52.080;9.006;2023-10-13T09:25:01;3.38;;;1.58;;
31262;SDS011;17892;52.080;9.006;2023-10-13T09:27:30;4.55;;;2.08;;
31262;SDS011;17892;52.080;9.006;2023-10-13T09:30:01;3.28;;;1.50;;
31262;SDS011;17892;52.080;9.006;2023-10-13T09:32:49;4.18;;;2.05;;
31262;SDS011;17892;52.080;9.006;2023-10-13T09:35:33;6.22;;;2.30;;
31262;SDS011;17892;52.080;9.006;2023-10-13T09:38:02;4.70;;;1.88;;
31262;SDS011;17892;52.080;9.006;2023-10-13T09:40:29;4.25;;;2.08;;
31262;SDS011;17892;52.080;9.006;2023-10-13T09:42:58;3.60;;;1.92;;
31262;SDS011;17892;52.080;9.006;2023-10-13T09:45:32;4.95;;;2.08;;
31262;SDS011;17892;52.080;9.006;2023-10-13T09:48:11;4.63;;;1.77;;
31262;SDS011;17892;52.080;9.006;2023-10-13T09:50:51;4.10;;;2.15;;
31262;SDS011;17892;52.080;9.006;2023-10-13T09:53:21;5.05;;;2.40;;
31262;SDS011;17892;52.080;9.006;2023-10-13T09:55:54;4.55;;;2.13;;
31262;SDS011;17892;52.080;9.006;2023-10-13T09:58:38;5.82;;;2.58;;
31262;SDS011;17892;52.080;9.006;2023-10-13T10:01:19;6.57;;;2.30;;
31262;SDS011;17892;52.080;9.006;2023-10-13T10:04:06;4.50;;;2.42;;
31262;SDS011;17892;52.080;9.006;2023-10-13T10:06:58;6.20;;;2.22;;
31262;SDS011;17892;52.080;9.006;2023-10-13T10:09:29;6.60;;;2.65;;
31262;SDS011;17892;52.080;9.006;2023-10-13T10:17:28;5.60;;;2.40;;
31262;SDS011;17892;52.080;9.006;2023-10-13T10:19:58;6.32;;;2.50;;
31262;SDS011;17892;52.080;9.006;2023-10-13T10:22:30;6.53;;;2.88;;
31262;SDS011;17892;52.080;9.006;2023-10-13T10:25:05;4.80;;;2.58;;
31262;SDS011;17892;52.080;9.006;2023-10-13T10:27:59;5.30;;;2.50;;
31262;SDS011;17892;52.080;9.006;2023-10-13T10:30:31;5.10;;;2.15;;
31262;SDS011;17892;52.080;9.006;2023-10-13T10:32:59;4.75;;;2.65;;
31262;SDS011;17892;52.080;9.006;2023-10-13T10:35:26;7.88;;;3.13;;
31262;SDS011;17892;52.080;9.006;2023-10-13T10:37:57;6.97;;;3.40;;
31262;SDS011;17892;52.080;9.006;2023-10-13T10:40:55;5.55;;;2.83;;
31262;SDS011;17892;52.080;9.006;2023-10-13T10:43:39;6.50;;;2.90;;
31262;SDS011;17892;52.080;9.006;2023-10-13T10:46:09;7.32;;;3.08;;
31262;SDS011;17892;52.080;9.006;2023-10-13T10:48:37;7.32;;;2.88;;
31262;SDS011;17892;52.080;9.006;2023-10-13T10:51:07;8.25;;;3.13;;
31262;SDS011;17892;52.080;9.006;2023-10-13T10:53:47;5.43;;;2.78;;
31262;SDS011;17892;52.080;9.006;2023-10-13T10:56:15;7.97;;;3.13;;
31262;SDS011;17892;52.080;9.006;2023-10-13T10:59:02;7.97;;;3.72;;
31262;SDS011;17892;52.080;9.006;2023-10-13T11:01:30;7.22;;;2.70;;
31262;SDS011;17892;52.080;9.006;2023-10-13T11:04:04;5.47;;;2.70;;
31262;SDS011;17892;52.080;9.006;2023-10-13T11:06:47;10.15;;;3.30;;
31262;SDS011;17892;52.080;9.006;2023-10-13T11:11:51;6.95;;;3.25;;
31262;SDS011;17892;52.080;9.006;2023-10-13T11:14:22;7.40;;;3.30;;
31262;SDS011;17892;52.080;9.006;2023-10-13T11:16:49;5.55;;;2.80;;
31262;SDS011;17892;52.080;9.006;2023-10-13T11:19:19;8.70;;;3.03;;
31262;SDS011;17892;52.080;9.006;2023-10-13T11:22:21;6.63;;;3.22;;
31262;SDS011;17892;52.080;9.006;2023-10-13T11:25:07;7.43;;;2.83;;
31262;SDS011;17892;52.080;9.006;2023-10-13T11:27:39;7.35;;;2.88;;
31262;SDS011;17892;52.080;9.006;2023-10-13T11:30:18;7.20;;;3.22;;
31262;SDS011;17892;52.080;9.006;2023-10-13T11:32:45;6.03;;;3.00;;
31262;SDS011;17892;52.080;9.006;2023-10-13T11:35:34;7.57;;;3.25;;
31262;SDS011;17892;52.080;9.006;2023-10-13T11:38:31;7.78;;;3.30;;
31262;SDS011;17892;52.080;9.006;2023-10-13T11:41:13;5.57;;;3.45;;
31262;SDS011;17892;52.080;9.006;2023-10-13T11:43:40;7.00;;;3.30;;
31262;SDS011;17892;52.080;9.006;2023-10-13T11:46:09;8.68;;;3.13;;
31262;SDS011;17892;52.080;9.006;2023-10-13T11:48:36;6.88;;;3.22;;
31262;SDS011;17892;52.080;9.006;2023-10-13T11:51:03;8.75;;;3.83;;
31262;SDS011;17892;52.080;9.006;2023-10-13T11:53:34;6.82;;;2.83;;
31262;SDS011;17892;52.080;9.006;2023-10-13T11:56:01;6.75;;;3.13;;
31262;SDS011;17892;52.080;9.006;2023-10-13T11:58:36;7.63;;;3.10;;
31262;SDS011;17892;52.080;9.006;2023-10-13T12:01:03;5.32;;;2.85;;
31262;SDS011;17892;52.080;9.006;2023-10-13T12:03:35;5.15;;;2.85;;
31262;SDS011;17892;52.080;9.006;2023-10-13T12:06:20;6.28;;;2.78;;
31262;SDS011;17892;52.080;9.006;2023-10-13T12:08:58;6.75;;;2.88;;
31262;SDS011;17892;52.080;9.006;2023-10-13T12:14:07;5.00;;;2.95;;
31262;SDS011;17892;52.080;9.006;2023-10-13T12:16:45;7.15;;;3.75;;
31262;SDS011;17892;52.080;9.006;2023-10-13T12:19:16;7.95;;;3.40;;
31262;SDS011;17892;52.080;9.006;2023-10-13T12:21:48;6.25;;;3.38;;
31262;SDS011;17892;52.080;9.006;2023-10-13T12:24:14;7.20;;;3.17;;
31262;SDS011;17892;52.080;9.006;2023-10-13T12:26:59;7.28;;;3.47;;
31262;SDS011;17892;52.080;9.006;2023-10-13T12:29:25;7.38;;;3.72;;
31262;SDS011;17892;52.080;9.006;2023-10-13T12:31:57;7.68;;;3.35;;
31262;SDS011;17892;52.080;9.006;2023-10-13T12:34:39;6.95;;;3.00;;
31262;SDS011;17892;52.080;9.006;2023-10-13T12:37:24;8.30;;;3.30;;
31262;SDS011;17892;52.080;9.006;2023-10-13T12:40:16;9.60;;;3.53;;
31262;SDS011;17892;52.080;9.006;2023-10-13T12:43:02;7.15;;;3.40;;
31262;SDS011;17892;52.080;9.006;2023-10-13T12:45:48;6.47;;;3.72;;
31262;SDS011;17892;52.080;9.006;2023-10-13T12:48:34;6.35;;;3.35;;
31262;SDS011;17892;52.080;9.006;2023-10-13T12:51:20;8.13;;;3.60;;
31262;SDS011;17892;52.080;9.006;2023-10-13T12:54:00;9.75;;;3.83;;
31262;SDS011;17892;52.080;9.006;2023-10-13T12:56:30;7.13;;;3.60;;
31262;SDS011;17892;52.080;9.006;2023-10-13T12:58:56;9.32;;;3.75;;
31262;SDS011;17892;52.080;9.006;2023-10-13T13:01:23;6.57;;;3.60;;
31262;SDS011;17892;52.080;9.006;2023-10-13T13:03:51;10.20;;;3.75;;
31262;SDS011;17892;52.080;9.006;2023-10-13T13:06:22;6.20;;;3.65;;
31262;SDS011;17892;52.080;9.006;2023-10-13T13:08:53;7.72;;;3.60;;
31262;SDS011;17892;52.080;9.006;2023-10-13T13:11:20;8.13;;;3.58;;
31262;SDS011;17892;52.080;9.006;2023-10-13T13:13:46;6.25;;;3.25;;
31262;SDS011;17892;52.080;9.006;2023-10-13T13:16:16;7.28;;;3.40;;
31262;SDS011;17892;52.080;9.006;2023-10-13T13:18:52;6.20;;;3.67;;
31262;SDS011;17892;52.080;9.006;2023-10-13T13:21:20;7.22;;;3.45;;
31262;SDS011;17892;52.080;9.006;2023-10-13T13:23:49;9.88;;;3.45;;
31262;SDS011;17892;52.080;9.006;2023-10-13T13:26:21;8.25;;;3.28;;
31262;SDS011;17892;52.080;9.006;2023-10-13T13:28:49;5.85;;;3.05;;
31262;SDS011;17892;52.080;9.006;2023-10-13T13:31:19;5.25;;;3.10;;
31262;SDS011;17892;52.080;9.006;2023-10-13T13:33:54;8.40;;;3.67;;
31262;SDS011;17892;52.080;9.006;2023-10-13T13:36:20;8.95;;;3.55;;
31262;SDS011;17892;52.080;9.006;2023-10-13T13:38:47;8.43;;;3.47;;
31262;SDS011;17892;52.080;9.006;2023-10-13T13:41:20;6.82;;;3.25;;
31262;SDS011;17892;52.080;9.006;2023-10-13T13:43:47;8.60;;;3.60;;
31262;SDS011;17892;52.080;9.006;2023-10-13T13:48:41;8.00;;;3.75;;
31262;SDS011;17892;52.080;9.006;2023-10-13T13:51:07;7.88;;;3.42;;
31262;SDS011;17892;52.080;9.006;2023-10-13T13:53:43;8.13;;;3.75;;
31262;SDS011;17892;52.080;9.006;2023-10-13T13:58:48;8.13;;;3.17;;
31262;SDS011;17892;52.080;9.006;2023-10-13T14:01:15;6.85;;;3.42;;
31262;SDS011;17892;52.080;9.006;2023-10-13T14:03:48;7.97;;;3.80;;
31262;SDS011;17892;52.080;9.006;2023-10-13T14:06:20;10.80;;;3.88;;
31262;SDS011;17892;52.080;9.006;2023-10-13T14:08:49;7.88;;;3.38;;
31262;SDS011;17892;52.080;9.006;2023-10-13T14:11:22;7.72;;;3.90;;
31262;SDS011;17892;52.080;9.006;2023-10-13T14:14:05;10.10;;;3.85;;
31262;SDS011;17892;52.080;9.006;2023-10-13T14:16:41;6.95;;;3.40;;
31262;SDS011;17892;52.080;9.006;2023-10-13T14:19:12;6.72;;;3.33;;
31262;SDS011;17892;52.080;9.006;2023-10-13T14:21:54;6.65;;;3.97;;
31262;SDS011;17892;52.080;9.006;2023-10-13T14:24:25;5.13;;;3.00;;
31262;SDS011;17892;52.080;9.006;2023-10-13T14:26:58;8.75;;;3.95;;
31262;SDS011;17892;52.080;9.006;2023-10-13T14:29:42;8.35;;;3.78;;
31262;SDS011;17892;52.080;9.006;2023-10-13T14:32:08;7.57;;;3.00;;
31262;SDS011;17892;52.080;9.006;2023-10-13T14:34:43;6.40;;;3.30;;
31262;SDS011;17892;52.080;9.006;2023-10-13T14:37:19;6.03;;;3.10;;
31262;SDS011;17892;52.080;9.006;2023-10-13T14:40:05;7.85;;;3.35;;
31262;SDS011;17892;52.080;9.006;2023-10-13T14:42:38;9.18;;;3.95;;
31262;SDS011;17892;52.080;9.006;2023-10-13T14:45:05;6.25;;;3.30;;
31262;SDS011;17892;52.080;9.006;2023-10-13T14:47:39;7.32;;;3.55;;
31262;SDS011;17892;52.080;9.006;2023-10-13T14:50:07;7.55;;;3.42;;
31262;SDS011;17892;52.080;9.006;2023-10-13T14:52:44;8.10;;;3.55;;
31262;SDS011;17892;52.080;9.006;2023-10-13T14:55:10;5.97;;;3.35;;
31262;SDS011;17892;52.080;9.006;2023-10-13T14:57:43;7.05;;;3.72;;
31262;SDS011;17892;52.080;9.006;2023-10-13T15:00:14;8.20;;;3.63;;
31262;SDS011;17892;52.080;9.006;2023-10-13T15:02:49;6.70;;;2.95;;
31262;SDS011;17892;52.080;9.006;2023-10-13T15:05:19;6.18;;;3.35;;
31262;SDS011;17892;52.080;9.006;2023-10-13T15:07:45;7.57;;;3.30;;
31262;SDS011;17892;52.080;9.006;2023-10-13T15:10:12;7.35;;;3.33;;
31262;SDS011;17892;52.080;9.006;2023-10-13T15:12:42;8.63;;;3.30;;
31262;SDS011;17892;52.080;9.006;2023-10-13T15:15:11;6.90;;;3.67;;
31262;SDS011;17892;52.080;9.006;2023-10-13T15:17:44;7.72;;;3.42;;
31262;SDS011;17892;52.080;9.006;2023-10-13T15:20:10;6.60;;;3.75;;
31262;SDS011;17892;52.080;9.006;2023-10-13T15:22:46;9.93;;;3.60;;
31262;SDS011;17892;52.080;9.006;2023-10-13T15:25:14;6.20;;;3.25;;
31262;SDS011;17892;52.080;9.006;2023-10-13T15:27:56;7.10;;;3.17;;
31262;SDS011;17892;52.080;9.006;2023-10-13T15:30:33;8.13;;;3.90;;
31262;SDS011;17892;52.080;9.006;2023-10-13T15:35:44;7.05;;;3.40;;
31262;SDS011;17892;52.080;9.006;2023-10-13T15:38:10;6.32;;;3.30;;
31262;SDS011;17892;52.080;9.006;2023-10-13T15:40:43;6.63;;;3.05;;
31262;SDS011;17892;52.080;9.006;2023-10-13T15:43:12;8.38;;;3.13;;
31262;SDS011;17892;52.080;9.006;2023-10-13T15:45:38;9.48;;;3.33;;
31262;SDS011;17892;52.080;9.006;2023-10-13T15:48:08;9.20;;;3.80;;
31262;SDS011;17892;52.080;9.006;2023-10-13T15:50:37;7.25;;;3.72;;
31262;SDS011;17892;52.080;9.006;2023-10-13T15:53:04;8.45;;;3.20;;
31262;SDS011;17892;52.080;9.006;2023-10-13T15:55:34;7.80;;;3.08;;
31262;SDS011;17892;52.080;9.006;2023-10-13T15:58:01;7.25;;;3.28;;
31262;SDS011;17892;52.080;9.006;2023-10-13T16:00:27;8.23;;;3.13;;
31262;SDS011;17892;52.080;9.006;2023-10-13T16:02:55;5.53;;;2.95;;
31262;SDS011;17892;52.080;9.006;2023-10-13T16:05:31;8.55;;;3.08;;
31262;SDS011;17892;52.080;9.006;2023-10-13T16:08:02;7.55;;;3.33;;
31262;SDS011;17892;52.080;9.006;2023-10-13T16:10:28;8.23;;;3.47;;
31262;SDS011;17892;52.080;9.006;2023-10-13T16:12:54;6.82;;;2.90;;
31262;SDS011;17892;52.080;9.006;2023-10-13T16:15:22;6.55;;;3.10;;